Aviation Digital Data Service (ADDS)

Output produced by TAFs form (0538 UTC 11 December 2017)
found at http://www.aviationweather.gov/adds/tafs/
 
KGSO 110520Z 1106/1206 23006KT P6SM FEW200